sensor_id;sensor_type;location;lat;lon;timestamp;pressure;altitude;pressure_sealevel;temperature;humidity
72721;BME280;60835;50.974;10.322;2023-02-28T00:01:23;99562.59;;;-0.02;100.00
72721;BME280;60835;50.974;10.322;2023-02-28T00:03:50;99559.09;;;-0.01;100.00
72721;BME280;60835;50.974;10.322;2023-02-28T00:06:16;99558.44;;;-0.06;100.00
72721;BME280;60835;50.974;10.322;2023-02-28T00:08:43;99557.16;;;0.05;100.00
72721;BME280;60835;50.974;10.322;2023-02-28T00:11:12;99557.28;;;0.02;100.00
72721;BME280;60835;50.974;10.322;2023-02-28T00:13:41;99554.03;;;-0.04;100.00
72721;BME280;60835;50.974;10.322;2023-02-28T00:16:17;99551.84;;;0.08;100.00
72721;BME280;60835;50.974;10.322;2023-02-28T00:18:44;99545.28;;;-0.03;100.00
72721;BME280;60835;50.974;10.322;2023-02-28T00:21:11;99541.31;;;0.11;100.00
72721;BME280;60835;50.974;10.322;2023-02-28T00:23:37;99541.03;;;0.17;100.00
72721;BME280;60835;50.974;10.322;2023-02-28T00:26:04;99533.72;;;0.26;100.00
72721;BME280;60835;50.974;10.322;2023-02-28T00:28:30;99543.53;;;0.20;100.00
72721;BME280;60835;50.974;10.322;2023-02-28T00:30:57;99541.13;;;-0.07;100.00
72721;BME280;60835;50.974;10.322;2023-02-28T00:33:24;99562.94;;;0.11;100.00
72721;BME280;60835;50.974;10.322;2023-02-28T00:35:50;99552.31;;;-0.05;100.00
72721;BME280;60835;50.974;10.322;2023-02-28T00:38:17;99545.91;;;-0.18;100.00
72721;BME280;60835;50.974;10.322;2023-02-28T00:40:43;99541.91;;;-0.05;100.00
72721;BME280;60835;50.974;10.322;2023-02-28T00:43:09;99549.34;;;0.05;100.00
72721;BME280;60835;50.974;10.322;2023-02-28T00:45:42;99540.72;;;-0.18;100.00
72721;BME280;60835;50.974;10.322;2023-02-28T00:48:08;99544.19;;;0.03;100.00
72721;BME280;60835;50.974;10.322;2023-02-28T00:50:34;99534.28;;;0.13;100.00
72721;BME280;60835;50.974;10.322;2023-02-28T00:53:01;99531.72;;;0.11;100.00
72721;BME280;60835;50.974;10.322;2023-02-28T00:55:27;99531.94;;;-0.15;100.00
72721;BME280;60835;50.974;10.322;2023-02-28T00:57:54;99536.00;;;-0.08;100.00
72721;BME280;60835;50.974;10.322;2023-02-28T01:00:20;99533.78;;;0.03;100.00
72721;BME280;60835;50.974;10.322;2023-02-28T01:02:47;99537.31;;;-0.20;100.00
72721;BME280;60835;50.974;10.322;2023-02-28T01:05:13;99537.56;;;-0.04;100.00
72721;BME280;60835;50.974;10.322;2023-02-28T01:07:40;99535.59;;;-0.19;100.00
72721;BME280;60835;50.974;10.322;2023-02-28T01:10:07;99541.31;;;-0.33;100.00
72721;BME280;60835;50.974;10.322;2023-02-28T01:12:34;99539.03;;;-0.19;100.00
72721;BME280;60835;50.974;10.322;2023-02-28T01:15:00;99539.03;;;-0.19;100.00
72721;BME280;60835;50.974;10.322;2023-02-28T01:17:27;99528.97;;;-0.28;100.00
72721;BME280;60835;50.974;10.322;2023-02-28T01:19:54;99531.38;;;-0.02;100.00
72721;BME280;60835;50.974;10.322;2023-02-28T01:22:22;99533.09;;;-0.01;100.00
72721;BME280;60835;50.974;10.322;2023-02-28T01:24:49;99532.56;;;0.12;100.00
72721;BME280;60835;50.974;10.322;2023-02-28T01:27:16;99530.75;;;0.14;100.00
72721;BME280;60835;50.974;10.322;2023-02-28T01:29:42;99530.16;;;0.07;100.00
72721;BME280;60835;50.974;10.322;2023-02-28T01:32:09;99533.69;;;-0.16;100.00
72721;BME280;60835;50.974;10.322;2023-02-28T01:34:35;99535.38;;;-0.15;100.00
72721;BME280;60835;50.974;10.322;2023-02-28T01:37:02;99522.75;;;-0.24;100.00
72721;BME280;60835;50.974;10.322;2023-02-28T01:39:29;99530.97;;;-0.13;100.00
72721;BME280;60835;50.974;10.322;2023-02-28T01:41:56;99523.16;;;-0.13;100.00
72721;BME280;60835;50.974;10.322;2023-02-28T01:47:36;99514.34;;;-0.09;100.00
72721;BME280;60835;50.974;10.322;2023-02-28T01:50:08;99524.00;;;-0.34;100.00
72721;BME280;60835;50.974;10.322;2023-02-28T01:52:35;99512.88;;;-0.16;100.00
72721;BME280;60835;50.974;10.322;2023-02-28T01:55:04;99517.13;;;-0.35;100.00
72721;BME280;60835;50.974;10.322;2023-02-28T01:57:38;99520.41;;;-0.30;100.00
72721;BME280;60835;50.974;10.322;2023-02-28T02:00:12;99513.91;;;-0.20;100.00
72721;BME280;60835;50.974;10.322;2023-02-28T02:02:46;99507.19;;;-0.04;100.00
72721;BME280;60835;50.974;10.322;2023-02-28T02:05:18;99518.06;;;-0.16;100.00
72721;BME280;60835;50.974;10.322;2023-02-28T02:07:47;99503.94;;;-0.09;100.00
72721;BME280;60835;50.974;10.322;2023-02-28T02:15:40;99502.63;;;-0.19;100.00
72721;BME280;60835;50.974;10.322;2023-02-28T02:28:09;99487.03;;;-0.19;100.00
72721;BME280;60835;50.974;10.322;2023-02-28T02:36:00;99477.19;;;-0.12;100.00
72721;BME280;60835;50.974;10.322;2023-02-28T02:38:34;99476.75;;;-0.02;100.00
72721;BME280;60835;50.974;10.322;2023-02-28T02:41:16;99477.16;;;0.10;100.00
72721;BME280;60835;50.974;10.322;2023-02-28T02:43:57;99476.09;;;0.14;100.00
72721;BME280;60835;50.974;10.322;2023-02-28T02:46:31;99485.06;;;-0.14;100.00
72721;BME280;60835;50.974;10.322;2023-02-28T02:49:03;99474.34;;;-0.06;100.00
72721;BME280;60835;50.974;10.322;2023-02-28T02:51:32;99474.16;;;-0.02;100.00
72721;BME280;60835;50.974;10.322;2023-02-28T02:56:49;99456.59;;;-0.17;100.00
72721;BME280;60835;50.974;10.322;2023-02-28T02:59:20;99468.09;;;-0.02;100.00
72721;BME280;60835;50.974;10.322;2023-02-28T03:01:51;99461.59;;;-0.12;100.00
72721;BME280;60835;50.974;10.322;2023-02-28T03:04:20;99463.09;;;-0.07;100.00
72721;BME280;60835;50.974;10.322;2023-02-28T03:06:48;99459.78;;;-0.32;100.00
72721;BME280;60835;50.974;10.322;2023-02-28T03:09:16;99453.44;;;-0.25;100.00
72721;BME280;60835;50.974;10.322;2023-02-28T03:11:42;99444.38;;;-0.36;100.00
72721;BME280;60835;50.974;10.322;2023-02-28T03:14:25;99440.94;;;-0.37;100.00
72721;BME280;60835;50.974;10.322;2023-02-28T03:22:30;99400.72;;;-0.28;100.00
72721;BME280;60835;50.974;10.322;2023-02-28T03:25:42;99370.59;;;-0.34;100.00
72721;BME280;60835;50.974;10.322;2023-02-28T03:28:23;99349.03;;;-0.36;100.00
72721;BME280;60835;50.974;10.322;2023-02-28T03:30:58;99332.38;;;-0.32;100.00
72721;BME280;60835;50.974;10.322;2023-02-28T03:33:54;99317.06;;;-0.38;100.00
72721;BME280;60835;50.974;10.322;2023-02-28T03:36:25;99303.09;;;-0.35;100.00
72721;BME280;60835;50.974;10.322;2023-02-28T03:38:58;99284.13;;;-0.37;100.00
72721;BME280;60835;50.974;10.322;2023-02-28T03:41:34;99278.31;;;-0.44;100.00
72721;BME280;60835;50.974;10.322;2023-02-28T03:44:11;99259.97;;;-0.21;100.00
72721;BME280;60835;50.974;10.322;2023-02-28T03:46:50;99263.63;;;-0.25;100.00
72721;BME280;60835;50.974;10.322;2023-02-28T03:49:32;99248.84;;;-0.43;100.00
72721;BME280;60835;50.974;10.322;2023-02-28T03:52:02;99241.13;;;-0.26;100.00
72721;BME280;60835;50.974;10.322;2023-02-28T03:54:35;99238.38;;;-0.23;100.00
72721;BME280;60835;50.974;10.322;2023-02-28T04:00:09;99236.09;;;-0.49;100.00
72721;BME280;60835;50.974;10.322;2023-02-28T04:02:37;99212.31;;;-0.40;100.00
72721;BME280;60835;50.974;10.322;2023-02-28T04:05:07;99213.84;;;-0.36;100.00
72721;BME280;60835;50.974;10.322;2023-02-28T04:07:33;99220.88;;;-0.38;100.00
72721;BME280;60835;50.974;10.322;2023-02-28T04:10:00;99215.69;;;-0.38;100.00
72721;BME280;60835;50.974;10.322;2023-02-28T04:12:26;99223.38;;;-0.36;100.00
72721;BME280;60835;50.974;10.322;2023-02-28T04:14:53;99222.41;;;-0.34;100.00
72721;BME280;60835;50.974;10.322;2023-02-28T04:17:19;99217.75;;;-0.46;100.00
72721;BME280;60835;50.974;10.322;2023-02-28T04:19:46;99210.59;;;-0.41;100.00
72721;BME280;60835;50.974;10.322;2023-02-28T04:22:12;99211.31;;;-0.37;100.00
72721;BME280;60835;50.974;10.322;2023-02-28T04:24:39;99208.66;;;-0.36;100.00
72721;BME280;60835;50.974;10.322;2023-02-28T04:27:09;99201.91;;;-0.40;100.00
72721;BME280;60835;50.974;10.322;2023-02-28T04:29:36;99191.63;;;-0.43;100.00
72721;BME280;60835;50.974;10.322;2023-02-28T04:32:03;99197.47;;;-0.38;100.00
72721;BME280;60835;50.974;10.322;2023-02-28T04:34:31;99196.16;;;-0.28;100.00
72721;BME280;60835;50.974;10.322;2023-02-28T04:36:58;99211.50;;;-0.22;100.00
72721;BME280;60835;50.974;10.322;2023-02-28T04:39:40;99196.41;;;-0.34;100.00
72721;BME280;60835;50.974;10.322;2023-02-28T04:42:07;99191.34;;;-0.37;100.00
72721;BME280;60835;50.974;10.322;2023-02-28T04:44:34;99177.56;;;-0.39;100.00
72721;BME280;60835;50.974;10.322;2023-02-28T04:47:00;99180.03;;;-0.36;100.00
72721;BME280;60835;50.974;10.322;2023-02-28T04:49:27;99168.75;;;-0.35;100.00
72721;BME280;60835;50.974;10.322;2023-02-28T04:51:53;99179.53;;;-0.44;100.00
72721;BME280;60835;50.974;10.322;2023-02-28T04:54:20;99181.44;;;-0.47;100.00
72721;BME280;60835;50.974;10.322;2023-02-28T04:56:46;99189.69;;;-0.38;100.00
72721;BME280;60835;50.974;10.322;2023-02-28T04:59:15;99169.06;;;-0.42;100.00
72721;BME280;60835;50.974;10.322;2023-02-28T05:01:46;99171.00;;;-0.27;100.00
72721;BME280;60835;50.974;10.322;2023-02-28T05:04:13;99166.16;;;-0.35;100.00
72721;BME280;60835;50.974;10.322;2023-02-28T05:06:40;99153.97;;;-0.34;100.00
72721;BME280;60835;50.974;10.322;2023-02-28T05:09:06;99163.38;;;-0.32;100.00
72721;BME280;60835;50.974;10.322;2023-02-28T05:11:34;99165.50;;;-0.40;100.00
72721;BME280;60835;50.974;10.322;2023-02-28T05:14:14;99163.38;;;-0.32;100.00
72721;BME280;60835;50.974;10.322;2023-02-28T05:16:41;99170.28;;;-0.31;100.00
72721;BME280;60835;50.974;10.322;2023-02-28T05:19:08;99167.19;;;-0.39;100.00
72721;BME280;60835;50.974;10.322;2023-02-28T05:21:37;99170.00;;;-0.43;100.00
72721;BME280;60835;50.974;10.322;2023-02-28T05:24:05;99169.00;;;-0.41;100.00
72721;BME280;60835;50.974;10.322;2023-02-28T05:26:37;99163.94;;;-0.44;100.00
72721;BME280;60835;50.974;10.322;2023-02-28T05:29:05;99168.25;;;-0.43;100.00
72721;BME280;60835;50.974;10.322;2023-02-28T05:31:33;99163.94;;;-0.44;100.00
72721;BME280;60835;50.974;10.322;2023-02-28T05:33:59;99167.75;;;-0.51;100.00
72721;BME280;60835;50.974;10.322;2023-02-28T05:36:26;99174.00;;;-0.36;100.00
72721;BME280;60835;50.974;10.322;2023-02-28T05:38:53;99173.78;;;-0.32;100.00
72721;BME280;60835;50.974;10.322;2023-02-28T05:41:20;99174.06;;;-0.38;100.00
72721;BME280;60835;50.974;10.322;2023-02-28T05:43:46;99179.41;;;-0.41;100.00
72721;BME280;60835;50.974;10.322;2023-02-28T05:46:14;99171.03;;;-0.29;100.00
72721;BME280;60835;50.974;10.322;2023-02-28T05:48:41;99187.59;;;-0.30;100.00
72721;BME280;60835;50.974;10.322;2023-02-28T05:51:09;99184.47;;;-0.38;100.00
72721;BME280;60835;50.974;10.322;2023-02-28T05:53:35;99186.84;;;-0.52;100.00
72721;BME280;60835;50.974;10.322;2023-02-28T05:56:02;99187.13;;;-0.39;100.00
72721;BME280;60835;50.974;10.322;2023-02-28T05:58:30;99188.41;;;-0.48;100.00
72721;BME280;60835;50.974;10.322;2023-02-28T06:00:58;99184.59;;;-0.41;100.00
72721;BME280;60835;50.974;10.322;2023-02-28T06:03:26;99181.28;;;-0.44;100.00
72721;BME280;60835;50.974;10.322;2023-02-28T06:05:53;99187.09;;;-0.58;100.00
72721;BME280;60835;50.974;10.322;2023-02-28T06:08:19;99190.06;;;-0.47;100.00
72721;BME280;60835;50.974;10.322;2023-02-28T06:10:45;99182.34;;;-0.48;100.00
72721;BME280;60835;50.974;10.322;2023-02-28T06:13:12;99191.50;;;-0.40;100.00
72721;BME280;60835;50.974;10.322;2023-02-28T06:15:39;99192.63;;;-0.45;100.00
72721;BME280;60835;50.974;10.322;2023-02-28T06:18:06;99183.22;;;-0.48;100.00
72721;BME280;60835;50.974;10.322;2023-02-28T06:20:32;99197.34;;;-0.35;100.00
72721;BME280;60835;50.974;10.322;2023-02-28T06:22:59;99201.91;;;-0.40;100.00
72721;BME280;60835;50.974;10.322;2023-02-28T06:25:27;99196.84;;;-0.43;100.00
72721;BME280;60835;50.974;10.322;2023-02-28T06:27:54;99202.69;;;-0.38;100.00
72721;BME280;60835;50.974;10.322;2023-02-28T06:30:22;99205.16;;;-0.35;100.00
72721;BME280;60835;50.974;10.322;2023-02-28T06:32:54;99206.19;;;-0.39;100.00
72721;BME280;60835;50.974;10.322;2023-02-28T06:35:21;99207.75;;;-0.35;100.00
72721;BME280;60835;50.974;10.322;2023-02-28T06:37:49;99209.06;;;-0.26;100.00
72721;BME280;60835;50.974;10.322;2023-02-28T06:40:15;99213.72;;;-0.33;100.00
72721;BME280;60835;50.974;10.322;2023-02-28T06:42:42;99205.78;;;-0.30;100.00
72721;BME280;60835;50.974;10.322;2023-02-28T06:45:10;99219.63;;;-0.11;100.00
72721;BME280;60835;50.974;10.322;2023-02-28T06:47:39;99216.66;;;-0.40;100.00
72721;BME280;60835;50.974;10.322;2023-02-28T06:50:08;99226.19;;;-0.41;100.00
72721;BME280;60835;50.974;10.322;2023-02-28T06:52:35;99227.06;;;-0.40;100.00
72721;BME280;60835;50.974;10.322;2023-02-28T06:55:05;99220.38;;;-0.46;100.00
72721;BME280;60835;50.974;10.322;2023-02-28T06:57:32;99230.28;;;-0.35;100.00
72721;BME280;60835;50.974;10.322;2023-02-28T07:00:00;99232.31;;;-0.42;100.00
72721;BME280;60835;50.974;10.322;2023-02-28T07:02:27;99226.06;;;-0.38;100.00
72721;BME280;60835;50.974;10.322;2023-02-28T07:04:54;99228.47;;;-0.33;100.00
72721;BME280;60835;50.974;10.322;2023-02-28T07:07:21;99233.66;;;-0.33;100.00
72721;BME280;60835;50.974;10.322;2023-02-28T07:09:47;99228.47;;;-0.33;100.00
72721;BME280;60835;50.974;10.322;2023-02-28T07:12:14;99230.09;;;-0.31;100.00
72721;BME280;60835;50.974;10.322;2023-02-28T07:14:40;99230.59;;;-0.23;100.00
72721;BME280;60835;50.974;10.322;2023-02-28T07:17:08;99233.06;;;-0.20;100.00
72721;BME280;60835;50.974;10.322;2023-02-28T07:19:34;99223.88;;;-0.08;100.00
72721;BME280;60835;50.974;10.322;2023-02-28T07:22:01;99219.50;;;0.11;100.00
72721;BME280;60835;50.974;10.322;2023-02-28T07:24:29;99207.97;;;0.17;100.00
72721;BME280;60835;50.974;10.322;2023-02-28T07:26:55;99235.75;;;0.16;100.00
72721;BME280;60835;50.974;10.322;2023-02-28T07:29:23;99232.84;;;0.41;100.00
72721;BME280;60835;50.974;10.322;2023-02-28T07:31:52;99237.78;;;0.47;100.00
72721;BME280;60835;50.974;10.322;2023-02-28T07:34:20;99245.38;;;0.51;100.00
72721;BME280;60835;50.974;10.322;2023-02-28T07:36:52;99255.16;;;0.82;100.00
72721;BME280;60835;50.974;10.322;2023-02-28T07:39:20;99259.41;;;0.85;100.00
72721;BME280;60835;50.974;10.322;2023-02-28T07:41:47;99279.19;;;1.06;100.00
72721;BME280;60835;50.974;10.322;2023-02-28T07:44:14;99296.47;;;1.43;100.00
72721;BME280;60835;50.974;10.322;2023-02-28T07:46:40;99335.59;;;1.77;100.00
72721;BME280;60835;50.974;10.322;2023-02-28T07:49:07;99429.47;;;2.28;100.00
72721;BME280;60835;50.974;10.322;2023-02-28T07:51:33;99561.09;;;2.93;100.00
72721;BME280;60835;50.974;10.322;2023-02-28T07:54:00;99733.31;;;3.67;100.00
72721;BME280;60835;50.974;10.322;2023-02-28T07:56:27;99915.38;;;3.73;100.00
72721;BME280;60835;50.974;10.322;2023-02-28T07:58:57;99953.34;;;2.90;100.00
72721;BME280;60835;50.974;10.322;2023-02-28T08:01:24;99996.19;;;3.25;100.00
72721;BME280;60835;50.974;10.322;2023-02-28T08:03:50;100043.88;;;3.11;100.00
72721;BME280;60835;50.974;10.322;2023-02-28T08:06:21;100079.78;;;3.65;100.00
72721;BME280;60835;50.974;10.322;2023-02-28T08:08:48;100097.03;;;3.88;100.00
72721;BME280;60835;50.974;10.322;2023-02-28T08:11:16;100125.03;;;4.40;100.00
72721;BME280;60835;50.974;10.322;2023-02-28T08:13:44;100133.66;;;4.25;100.00
72721;BME280;60835;50.974;10.322;2023-02-28T08:16:12;100122.28;;;3.89;100.00
72721;BME280;60835;50.974;10.322;2023-02-28T08:18:43;100125.50;;;4.31;100.00
72721;BME280;60835;50.974;10.322;2023-02-28T08:21:11;100137.31;;;4.57;100.00
72721;BME280;60835;50.974;10.322;2023-02-28T08:23:39;100167.63;;;4.79;100.00
72721;BME280;60835;50.974;10.322;2023-02-28T08:26:09;100166.09;;;4.04;100.00
72721;BME280;60835;50.974;10.322;2023-02-28T08:28:38;100174.44;;;5.18;100.00
72721;BME280;60835;50.974;10.322;2023-02-28T08:31:13;100204.69;;;5.25;100.00
72721;BME280;60835;50.974;10.322;2023-02-28T08:33:43;100215.63;;;5.33;100.00
72721;BME280;60835;50.974;10.322;2023-02-28T08:36:10;100232.13;;;5.01;100.00
72721;BME280;60835;50.974;10.322;2023-02-28T08:38:39;100222.53;;;5.18;100.00
72721;BME280;60835;50.974;10.322;2023-02-28T08:41:09;100265.66;;;5.47;100.00
72721;BME280;60835;50.974;10.322;2023-02-28T08:43:36;100278.41;;;5.20;100.00
72721;BME280;60835;50.974;10.322;2023-02-28T08:46:03;100272.44;;;5.00;100.00
72721;BME280;60835;50.974;10.322;2023-02-28T08:48:32;100277.94;;;6.13;100.00
72721;BME280;60835;50.974;10.322;2023-02-28T08:51:01;100273.22;;;6.51;100.00
72721;BME280;60835;50.974;10.322;2023-02-28T08:53:33;100297.44;;;6.09;100.00
72721;BME280;60835;50.974;10.322;2023-02-28T08:56:05;100299.63;;;5.33;100.00
72721;BME280;60835;50.974;10.322;2023-02-28T08:58:32;100317.84;;;5.36;100.00
72721;BME280;60835;50.974;10.322;2023-02-28T09:01:06;100316.44;;;6.14;100.00
72721;BME280;60835;50.974;10.322;2023-02-28T09:03:33;100320.84;;;6.14;100.00
72721;BME280;60835;50.974;10.322;2023-02-28T09:06:00;100298.56;;;5.88;100.00
72721;BME280;60835;50.974;10.322;2023-02-28T09:08:28;100297.09;;;5.31;100.00
72721;BME280;60835;50.974;10.322;2023-02-28T09:10:57;100308.13;;;5.38;100.00
72721;BME280;60835;50.974;10.322;2023-02-28T09:13:26;100324.00;;;6.21;100.00
72721;BME280;60835;50.974;10.322;2023-02-28T09:15:53;100314.34;;;6.21;100.00
72721;BME280;60835;50.974;10.322;2023-02-28T09:18:20;100307.66;;;5.81;100.00
72721;BME280;60835;50.974;10.322;2023-02-28T09:20:47;100332.53;;;5.57;100.00
72721;BME280;60835;50.974;10.322;2023-02-28T09:23:13;100334.63;;;7.28;100.00
72721;BME280;60835;50.974;10.322;2023-02-28T09:25:48;100355.56;;;6.03;100.00
72721;BME280;60835;50.974;10.322;2023-02-28T09:28:15;100342.50;;;6.99;100.00
72721;BME280;60835;50.974;10.322;2023-02-28T09:30:48;100348.25;;;4.68;100.00
72721;BME280;60835;50.974;10.322;2023-02-28T09:33:16;100366.00;;;4.62;100.00
72721;BME280;60835;50.974;10.322;2023-02-28T09:35:43;100352.56;;;4.12;100.00
72721;BME280;60835;50.974;10.322;2023-02-28T09:38:18;100361.06;;;5.29;100.00
72721;BME280;60835;50.974;10.322;2023-02-28T09:40:49;100352.31;;;4.92;100.00
72721;BME280;60835;50.974;10.322;2023-02-28T09:43:17;100369.94;;;5.96;100.00
72721;BME280;60835;50.974;10.322;2023-02-28T09:46:29;100354.84;;;6.50;100.00
72721;BME280;60835;50.974;10.322;2023-02-28T09:49:00;100353.06;;;5.83;100.00
72721;BME280;60835;50.974;10.322;2023-02-28T09:51:50;100370.69;;;6.33;100.00
72721;BME280;60835;50.974;10.322;2023-02-28T09:54:20;100359.06;;;4.61;100.00
72721;BME280;60835;50.974;10.322;2023-02-28T10:05:13;100368.06;;;4.16;100.00
72721;BME280;60835;50.974;10.322;2023-02-28T10:08:15;100374.63;;;6.72;100.00
72721;BME280;60835;50.974;10.322;2023-02-28T10:10:47;100370.75;;;6.31;100.00
72721;BME280;60835;50.974;10.322;2023-02-28T10:16:01;100357.59;;;7.26;100.00
72721;BME280;60835;50.974;10.322;2023-02-28T10:18:43;100380.38;;;7.12;100.00
72721;BME280;60835;50.974;10.322;2023-02-28T10:21:20;100387.41;;;8.02;100.00
72721;BME280;60835;50.974;10.322;2023-02-28T10:24:03;100383.50;;;5.70;100.00
72721;BME280;60835;50.974;10.322;2023-02-28T10:26:32;100382.31;;;5.94;100.00
72721;BME280;60835;50.974;10.322;2023-02-28T10:28:59;100375.38;;;7.53;100.00
72721;BME280;60835;50.974;10.322;2023-02-28T10:31:26;100379.50;;;6.14;100.00
72721;BME280;60835;50.974;10.322;2023-02-28T10:33:53;100383.75;;;7.14;100.00
72721;BME280;60835;50.974;10.322;2023-02-28T10:36:20;100374.56;;;6.74;100.00
72721;BME280;60835;50.974;10.322;2023-02-28T10:38:48;100387.94;;;6.54;100.00
72721;BME280;60835;50.974;10.322;2023-02-28T10:41:18;100391.56;;;6.01;100.00
72721;BME280;60835;50.974;10.322;2023-02-28T10:43:52;100358.41;;;6.49;100.00
72721;BME280;60835;50.974;10.322;2023-02-28T10:46:19;100381.53;;;7.38;100.00
72721;BME280;60835;50.974;10.322;2023-02-28T10:49:11;100383.66;;;5.67;100.00
72721;BME280;60835;50.974;10.322;2023-02-28T10:51:40;100381.13;;;7.75;100.00
72721;BME280;60835;50.974;10.322;2023-02-28T10:54:19;100402.47;;;5.94;100.00
72721;BME280;60835;50.974;10.322;2023-02-28T10:57:17;100370.47;;;5.16;100.00
72721;BME280;60835;50.974;10.322;2023-02-28T11:00:05;100385.56;;;5.99;100.00
72721;BME280;60835;50.974;10.322;2023-02-28T11:02:34;100381.41;;;5.60;100.00
72721;BME280;60835;50.974;10.322;2023-02-28T11:05:02;100376.19;;;5.94;100.00
72721;BME280;60835;50.974;10.322;2023-02-28T11:07:28;100379.03;;;6.06;100.00
72721;BME280;60835;50.974;10.322;2023-02-28T11:10:16;100376.56;;;5.69;100.00
72721;BME280;60835;50.974;10.322;2023-02-28T11:12:46;100363.72;;;5.80;100.00
72721;BME280;60835;50.974;10.322;2023-02-28T11:15:26;100376.44;;;5.89;100.00
72721;BME280;60835;50.974;10.322;2023-02-28T11:20:26;100365.69;;;6.44;100.00
72721;BME280;60835;50.974;10.322;2023-02-28T11:22:54;100368.47;;;5.21;100.00
72721;BME280;60835;50.974;10.322;2023-02-28T11:25:33;100370.28;;;6.23;100.00
72721;BME280;60835;50.974;10.322;2023-02-28T11:28:02;100370.28;;;4.64;100.00
72721;BME280;60835;50.974;10.322;2023-02-28T11:30:40;100350.34;;;6.52;100.00
72721;BME280;60835;50.974;10.322;2023-02-28T11:33:29;100353.47;;;6.43;100.00
72721;BME280;60835;50.974;10.322;2023-02-28T11:36:00;100354.59;;;5.36;100.00
72721;BME280;60835;50.974;10.322;2023-02-28T11:38:28;100353.63;;;5.20;100.00
72721;BME280;60835;50.974;10.322;2023-02-28T11:41:01;100360.78;;;4.80;100.00
72721;BME280;60835;50.974;10.322;2023-02-28T11:49:59;100349.41;;;5.87;100.00
72721;BME280;60835;50.974;10.322;2023-02-28T11:57:53;100337.88;;;8.21;100.00
72721;BME280;60835;50.974;10.322;2023-02-28T12:09:29;100339.75;;;7.91;100.00
72721;BME280;60835;50.974;10.322;2023-02-28T12:12:23;100315.16;;;5.54;100.00
72721;BME280;60835;50.974;10.322;2023-02-28T12:18:05;100333.22;;;6.92;100.00
72721;BME280;60835;50.974;10.322;2023-02-28T12:20:43;100321.88;;;7.36;100.00
72721;BME280;60835;50.974;10.322;2023-02-28T12:23:43;100320.91;;;7.08;100.00
72721;BME280;60835;50.974;10.322;2023-02-28T12:26:22;100337.22;;;6.19;100.00
72721;BME280;60835;50.974;10.322;2023-02-28T12:29:08;100325.13;;;6.32;100.00
72721;BME280;60835;50.974;10.322;2023-02-28T12:31:43;100334.38;;;6.06;100.00
72721;BME280;60835;50.974;10.322;2023-02-28T12:34:21;100319.56;;;6.54;100.00
72721;BME280;60835;50.974;10.322;2023-02-28T12:36:51;100308.53;;;8.41;100.00
72721;BME280;60835;50.974;10.322;2023-02-28T12:39:26;100318.91;;;8.30;100.00
72721;BME280;60835;50.974;10.322;2023-02-28T12:42:13;100299.06;;;7.81;100.00
72721;BME280;60835;50.974;10.322;2023-02-28T12:44:51;100307.53;;;9.38;100.00
72721;BME280;60835;50.974;10.322;2023-02-28T12:47:19;100323.50;;;8.13;100.00
72721;BME280;60835;50.974;10.322;2023-02-28T12:49:49;100298.41;;;5.57;100.00
72721;BME280;60835;50.974;10.322;2023-02-28T12:53:23;100309.94;;;7.61;100.00
72721;BME280;60835;50.974;10.322;2023-02-28T12:55:31;100289.81;;;6.21;100.00
72721;BME280;60835;50.974;10.322;2023-02-28T13:09:13;100305.03;;;6.47;100.00
72721;BME280;60835;50.974;10.322;2023-02-28T13:11:49;100309.94;;;7.61;100.00
72721;BME280;60835;50.974;10.322;2023-02-28T13:16:55;100309.25;;;7.27;100.00
72721;BME280;60835;50.974;10.322;2023-02-28T13:19:26;100306.63;;;7.27;100.00
72721;BME280;60835;50.974;10.322;2023-02-28T13:21:53;100322.66;;;5.96;100.00
72721;BME280;60835;50.974;10.322;2023-02-28T13:29:43;100289.03;;;6.67;100.00
72721;BME280;60835;50.974;10.322;2023-02-28T13:34:38;100287.06;;;6.86;100.00
72721;BME280;60835;50.974;10.322;2023-02-28T13:39:47;100281.22;;;6.50;100.00
72721;BME280;60835;50.974;10.322;2023-02-28T13:53:08;100261.53;;;4.36;100.00
72721;BME280;60835;50.974;10.322;2023-02-28T13:55:49;100257.84;;;4.94;100.00
72721;BME280;60835;50.974;10.322;2023-02-28T13:58:41;100254.53;;;4.72;100.00
72721;BME280;60835;50.974;10.322;2023-02-28T14:07:49;100237.38;;;4.83;100.00
72721;BME280;60835;50.974;10.322;2023-02-28T14:10:37;100255.81;;;4.63;100.00
72721;BME280;60835;50.974;10.322;2023-02-28T14:15:46;100246.66;;;4.17;100.00
72721;BME280;60835;50.974;10.322;2023-02-28T14:18:29;100235.72;;;4.08;100.00
72721;BME280;60835;50.974;10.322;2023-02-28T14:20:58;100233.88;;;3.73;100.00
72721;BME280;60835;50.974;10.322;2023-02-28T14:26:13;100232.63;;;4.18;100.00
72721;BME280;60835;50.974;10.322;2023-02-28T14:36:46;100230.28;;;3.94;100.00
72721;BME280;60835;50.974;10.322;2023-02-28T14:39:17;100218.19;;;4.28;100.00
72721;BME280;60835;50.974;10.322;2023-02-28T14:41:46;100222.16;;;3.81;100.00
72721;BME280;60835;50.974;10.322;2023-02-28T14:44:16;100215.59;;;3.71;100.00
72721;BME280;60835;50.974;10.322;2023-02-28T14:46:45;100209.63;;;3.88;100.00
72721;BME280;60835;50.974;10.322;2023-02-28T14:49:32;100202.91;;;4.01;100.00
72721;BME280;60835;50.974;10.322;2023-02-28T14:52:07;100202.34;;;4.13;100.00
72721;BME280;60835;50.974;10.322;2023-02-28T14:54:39;100204.97;;;4.13;100.00
72721;BME280;60835;50.974;10.322;2023-02-28T14:57:23;100207.22;;;4.02;100.00
72721;BME280;60835;50.974;10.322;2023-02-28T15:00:22;100205.81;;;3.56;100.00
72721;BME280;60835;50.974;10.322;2023-02-28T15:02:49;100213.69;;;3.75;100.00
72721;BME280;60835;50.974;10.322;2023-02-28T15:05:23;100196.53;;;3.29;100.00
72721;BME280;60835;50.974;10.322;2023-02-28T15:08:01;100186.63;;;3.76;100.00